sensor_id;sensor_type;location;lat;lon;timestamp;pressure;altitude;pressure_sealevel;temperature;humidity
24154;BME280;12312;53.362;-1.518;2023-07-29T00:01:53;97929.91;;;16.97;100.00
24154;BME280;12312;53.362;-1.518;2023-07-29T00:04:38;97931.13;;;16.95;100.00
24154;BME280;12312;53.362;-1.518;2023-07-29T00:07:22;97927.47;;;16.88;100.00
24154;BME280;12312;53.362;-1.518;2023-07-29T00:10:06;97927.22;;;16.83;100.00
24154;BME280;12312;53.362;-1.518;2023-07-29T00:12:50;97931.25;;;16.79;100.00
24154;BME280;12312;53.362;-1.518;2023-07-29T00:15:34;97935.28;;;16.83;100.00
24154;BME280;12312;53.362;-1.518;2023-07-29T00:18:18;97932.22;;;16.86;100.00
24154;BME280;12312;53.362;-1.518;2023-07-29T00:21:02;97929.91;;;16.83;100.00
24154;BME280;12312;53.362;-1.518;2023-07-29T00:23:46;97926.56;;;16.81;100.00
24154;BME280;12312;53.362;-1.518;2023-07-29T00:26:30;97925.63;;;16.74;100.00
24154;BME280;12312;53.362;-1.518;2023-07-29T00:29:14;97923.50;;;16.84;100.00
24154;BME280;12312;53.362;-1.518;2023-07-29T00:31:58;97910.25;;;16.82;100.00
24154;BME280;12312;53.362;-1.518;2023-07-29T00:34:42;97910.22;;;16.68;100.00
24154;BME280;12312;53.362;-1.518;2023-07-29T00:37:27;97916.00;;;16.57;100.00
24154;BME280;12312;53.362;-1.518;2023-07-29T00:40:15;97909.97;;;16.55;100.00
24154;BME280;12312;53.362;-1.518;2023-07-29T00:43:00;97909.03;;;16.48;100.00
24154;BME280;12312;53.362;-1.518;2023-07-29T00:45:44;97908.00;;;16.49;100.00
24154;BME280;12312;53.362;-1.518;2023-07-29T00:48:28;97911.50;;;16.57;100.00
24154;BME280;12312;53.362;-1.518;2023-07-29T00:51:12;97904.06;;;16.37;100.00
24154;BME280;12312;53.362;-1.518;2023-07-29T00:53:56;97903.97;;;16.53;100.00
24154;BME280;12312;53.362;-1.518;2023-07-29T00:56:40;97895.44;;;16.41;100.00
24154;BME280;12312;53.362;-1.518;2023-07-29T00:59:24;97903.31;;;16.43;100.00
24154;BME280;12312;53.362;-1.518;2023-07-29T01:02:08;97904.34;;;16.42;100.00
24154;BME280;12312;53.362;-1.518;2023-07-29T01:04:56;97909.72;;;16.50;100.00
24154;BME280;12312;53.362;-1.518;2023-07-29T01:10:35;97900.09;;;16.70;100.00
24154;BME280;12312;53.362;-1.518;2023-07-29T01:13:44;97903.44;;;16.57;100.00
24154;BME280;12312;53.362;-1.518;2023-07-29T01:16:32;97904.34;;;16.50;100.00
24154;BME280;12312;53.362;-1.518;2023-07-29T01:20:01;97903.81;;;16.69;100.00
24154;BME280;12312;53.362;-1.518;2023-07-29T01:22:25;97902.75;;;16.33;100.00
24154;BME280;12312;53.362;-1.518;2023-07-29T01:25:09;97904.03;;;16.45;100.00
24154;BME280;12312;53.362;-1.518;2023-07-29T01:27:53;97898.97;;;16.42;100.00
24154;BME280;12312;53.362;-1.518;2023-07-29T01:30:39;97893.31;;;16.37;100.00
24154;BME280;12312;53.362;-1.518;2023-07-29T01:33:25;97892.19;;;16.54;100.00
24154;BME280;12312;53.362;-1.518;2023-07-29T01:36:13;97901.81;;;16.71;100.00
24154;BME280;12312;53.362;-1.518;2023-07-29T01:38:59;97902.53;;;16.79;100.00
24154;BME280;12312;53.362;-1.518;2023-07-29T01:41:43;97893.91;;;16.69;100.00
24154;BME280;12312;53.362;-1.518;2023-07-29T01:44:30;97898.16;;;16.64;100.00
24154;BME280;12312;53.362;-1.518;2023-07-29T01:47:14;97890.69;;;16.74;100.00
24154;BME280;12312;53.362;-1.518;2023-07-29T01:49:58;97897.06;;;16.73;100.00
24154;BME280;12312;53.362;-1.518;2023-07-29T01:52:42;97888.31;;;16.56;100.00
24154;BME280;12312;53.362;-1.518;2023-07-29T01:55:26;97878.03;;;16.60;100.00
24154;BME280;12312;53.362;-1.518;2023-07-29T01:58:10;97881.91;;;16.35;100.00
24154;BME280;12312;53.362;-1.518;2023-07-29T02:00:54;97877.13;;;16.53;100.00
24154;BME280;12312;53.362;-1.518;2023-07-29T02:03:38;97876.63;;;16.27;100.00
24154;BME280;12312;53.362;-1.518;2023-07-29T02:06:22;97881.63;;;16.30;100.00
24154;BME280;12312;53.362;-1.518;2023-07-29T02:09:06;97877.91;;;16.31;100.00
24154;BME280;12312;53.362;-1.518;2023-07-29T02:11:50;97880.41;;;16.32;100.00
24154;BME280;12312;53.362;-1.518;2023-07-29T02:14:34;97890.13;;;16.33;100.00
24154;BME280;12312;53.362;-1.518;2023-07-29T02:17:18;97892.72;;;16.04;100.00
24154;BME280;12312;53.362;-1.518;2023-07-29T02:20:02;97893.44;;;16.21;100.00
24154;BME280;12312;53.362;-1.518;2023-07-29T02:22:47;97885.44;;;16.13;100.00
24154;BME280;12312;53.362;-1.518;2023-07-29T02:25:34;97889.50;;;16.09;100.00
24154;BME280;12312;53.362;-1.518;2023-07-29T02:28:18;97889.38;;;16.02;100.00
24154;BME280;12312;53.362;-1.518;2023-07-29T02:31:19;97881.63;;;16.07;100.00
24154;BME280;12312;53.362;-1.518;2023-07-29T02:34:04;97881.00;;;15.97;100.00
24154;BME280;12312;53.362;-1.518;2023-07-29T02:36:48;97879.97;;;15.45;100.00
24154;BME280;12312;53.362;-1.518;2023-07-29T02:39:32;97870.25;;;15.74;100.00
24154;BME280;12312;53.362;-1.518;2023-07-29T02:42:16;97866.59;;;15.67;100.00
24154;BME280;12312;53.362;-1.518;2023-07-29T02:45:00;97859.75;;;15.87;100.00
24154;BME280;12312;53.362;-1.518;2023-07-29T02:47:43;97860.00;;;15.78;100.00
24154;BME280;12312;53.362;-1.518;2023-07-29T02:50:27;97864.16;;;15.80;100.00
24154;BME280;12312;53.362;-1.518;2023-07-29T02:53:11;97867.63;;;15.89;100.00
24154;BME280;12312;53.362;-1.518;2023-07-29T02:55:55;97870.44;;;15.95;100.00
24154;BME280;12312;53.362;-1.518;2023-07-29T02:58:39;97871.28;;;15.65;100.00
24154;BME280;12312;53.362;-1.518;2023-07-29T03:01:23;97862.63;;;15.86;100.00
24154;BME280;12312;53.362;-1.518;2023-07-29T03:04:10;97856.16;;;15.72;100.00
24154;BME280;12312;53.362;-1.518;2023-07-29T03:06:56;97854.88;;;15.60;100.00
24154;BME280;12312;53.362;-1.518;2023-07-29T03:09:40;97846.41;;;15.79;100.00
24154;BME280;12312;53.362;-1.518;2023-07-29T03:12:26;97843.66;;;15.87;100.00
24154;BME280;12312;53.362;-1.518;2023-07-29T03:15:11;97836.22;;;15.75;100.00
24154;BME280;12312;53.362;-1.518;2023-07-29T03:17:55;97834.31;;;15.53;100.00
24154;BME280;12312;53.362;-1.518;2023-07-29T03:20:39;97835.88;;;15.47;100.00
24154;BME280;12312;53.362;-1.518;2023-07-29T03:23:23;97825.66;;;15.35;100.00
24154;BME280;12312;53.362;-1.518;2023-07-29T03:26:07;97818.63;;;15.34;100.00
24154;BME280;12312;53.362;-1.518;2023-07-29T03:28:54;97818.16;;;15.38;100.00
24154;BME280;12312;53.362;-1.518;2023-07-29T03:31:38;97824.81;;;15.42;100.00
24154;BME280;12312;53.362;-1.518;2023-07-29T03:34:22;97818.75;;;15.48;100.00
24154;BME280;12312;53.362;-1.518;2023-07-29T03:37:07;97819.44;;;15.34;100.00
24154;BME280;12312;53.362;-1.518;2023-07-29T03:39:50;97823.53;;;15.22;100.00
24154;BME280;12312;53.362;-1.518;2023-07-29T03:42:36;97825.59;;;15.12;100.00
24154;BME280;12312;53.362;-1.518;2023-07-29T03:45:19;97830.59;;;15.15;100.00
24154;BME280;12312;53.362;-1.518;2023-07-29T03:48:03;97842.38;;;15.06;100.00
24154;BME280;12312;53.362;-1.518;2023-07-29T03:50:47;97825.94;;;15.09;100.00
24154;BME280;12312;53.362;-1.518;2023-07-29T03:53:31;97838.31;;;15.10;100.00
24154;BME280;12312;53.362;-1.518;2023-07-29T03:56:15;97839.88;;;14.97;100.00
24154;BME280;12312;53.362;-1.518;2023-07-29T03:59:03;97825.44;;;15.06;100.00
24154;BME280;12312;53.362;-1.518;2023-07-29T04:01:47;97827.94;;;15.07;100.00
24154;BME280;12312;53.362;-1.518;2023-07-29T04:04:31;97833.28;;;15.15;100.00
24154;BME280;12312;53.362;-1.518;2023-07-29T04:07:15;97832.34;;;15.00;100.00
24154;BME280;12312;53.362;-1.518;2023-07-29T04:09:59;97822.00;;;14.89;100.00
24154;BME280;12312;53.362;-1.518;2023-07-29T04:12:44;97826.47;;;14.97;100.00
24154;BME280;12312;53.362;-1.518;2023-07-29T04:15:28;97828.66;;;15.01;100.00
24154;BME280;12312;53.362;-1.518;2023-07-29T04:18:13;97831.41;;;14.77;100.00
24154;BME280;12312;53.362;-1.518;2023-07-29T04:20:57;97822.34;;;14.78;100.00
24154;BME280;12312;53.362;-1.518;2023-07-29T04:23:41;97831.75;;;14.74;100.00
24154;BME280;12312;53.362;-1.518;2023-07-29T04:26:25;97827.34;;;14.81;100.00
24154;BME280;12312;53.362;-1.518;2023-07-29T04:29:09;97825.75;;;14.64;100.00
24154;BME280;12312;53.362;-1.518;2023-07-29T04:31:53;97832.25;;;14.70;100.00
24154;BME280;12312;53.362;-1.518;2023-07-29T04:34:37;97827.41;;;14.65;100.00
24154;BME280;12312;53.362;-1.518;2023-07-29T04:37:21;97831.78;;;14.58;100.00
24154;BME280;12312;53.362;-1.518;2023-07-29T04:40:05;97839.78;;;14.66;100.00
24154;BME280;12312;53.362;-1.518;2023-07-29T04:42:50;97832.09;;;14.71;100.00
24154;BME280;12312;53.362;-1.518;2023-07-29T04:45:35;97829.41;;;14.63;100.00
24154;BME280;12312;53.362;-1.518;2023-07-29T04:48:18;97829.72;;;14.76;100.00
24154;BME280;12312;53.362;-1.518;2023-07-29T04:51:02;97829.06;;;14.74;100.00
24154;BME280;12312;53.362;-1.518;2023-07-29T04:53:46;97832.38;;;14.84;100.00
24154;BME280;12312;53.362;-1.518;2023-07-29T04:56:30;97832.09;;;14.71;100.00
24154;BME280;12312;53.362;-1.518;2023-07-29T04:59:14;97825.41;;;14.67;100.00
24154;BME280;12312;53.362;-1.518;2023-07-29T05:01:58;97831.09;;;14.64;100.00
24154;BME280;12312;53.362;-1.518;2023-07-29T05:04:42;97837.09;;;14.74;100.00
24154;BME280;12312;53.362;-1.518;2023-07-29T05:07:26;97839.28;;;14.71;100.00
24154;BME280;12312;53.362;-1.518;2023-07-29T05:10:10;97839.94;;;14.73;100.00
24154;BME280;12312;53.362;-1.518;2023-07-29T05:12:55;97849.13;;;14.78;100.00
24154;BME280;12312;53.362;-1.518;2023-07-29T05:15:39;97854.47;;;14.86;100.00
24154;BME280;12312;53.362;-1.518;2023-07-29T05:18:23;97861.81;;;15.00;100.00
24154;BME280;12312;53.362;-1.518;2023-07-29T05:21:07;97857.59;;;15.06;100.00
24154;BME280;12312;53.362;-1.518;2023-07-29T05:23:52;97856.78;;;15.05;100.00
24154;BME280;12312;53.362;-1.518;2023-07-29T05:26:36;97862.84;;;14.91;100.00
24154;BME280;12312;53.362;-1.518;2023-07-29T05:29:20;97857.94;;;15.03;100.00
24154;BME280;12312;53.362;-1.518;2023-07-29T05:32:04;97860.66;;;14.95;100.00
24154;BME280;12312;53.362;-1.518;2023-07-29T05:34:48;97862.66;;;14.93;100.00
24154;BME280;12312;53.362;-1.518;2023-07-29T05:37:32;97862.84;;;14.99;100.00
24154;BME280;12312;53.362;-1.518;2023-07-29T05:40:16;97865.78;;;15.12;100.00
24154;BME280;12312;53.362;-1.518;2023-07-29T05:43:00;97857.41;;;15.15;100.00
24154;BME280;12312;53.362;-1.518;2023-07-29T05:45:44;97865.91;;;15.27;100.00
24154;BME280;12312;53.362;-1.518;2023-07-29T05:48:28;97854.88;;;15.22;100.00
24154;BME280;12312;53.362;-1.518;2023-07-29T05:51:12;97862.03;;;15.37;100.00
24154;BME280;12312;53.362;-1.518;2023-07-29T05:53:56;97863.75;;;15.22;100.00
24154;BME280;12312;53.362;-1.518;2023-07-29T05:56:40;97859.22;;;15.23;100.00
24154;BME280;12312;53.362;-1.518;2023-07-29T05:59:24;97860.88;;;15.24;100.00
24154;BME280;12312;53.362;-1.518;2023-07-29T06:02:08;97862.44;;;15.10;100.00
24154;BME280;12312;53.362;-1.518;2023-07-29T06:04:52;97859.06;;;15.16;100.00
24154;BME280;12312;53.362;-1.518;2023-07-29T06:07:36;97862.09;;;15.13;100.00
24154;BME280;12312;53.362;-1.518;2023-07-29T06:10:20;97860.44;;;15.12;100.00
24154;BME280;12312;53.362;-1.518;2023-07-29T06:13:04;97862.06;;;15.21;100.00
24154;BME280;12312;53.362;-1.518;2023-07-29T06:15:48;97860.78;;;15.09;100.00
24154;BME280;12312;53.362;-1.518;2023-07-29T06:18:32;97866.81;;;15.11;100.00
24154;BME280;12312;53.362;-1.518;2023-07-29T06:21:16;97865.00;;;14.96;100.00
24154;BME280;12312;53.362;-1.518;2023-07-29T06:24:01;97859.63;;;15.04;100.00
24154;BME280;12312;53.362;-1.518;2023-07-29T06:26:45;97860.75;;;15.17;100.00
24154;BME280;12312;53.362;-1.518;2023-07-29T06:29:29;97863.72;;;15.38;100.00
24154;BME280;12312;53.362;-1.518;2023-07-29T06:32:13;97858.84;;;15.42;100.00
24154;BME280;12312;53.362;-1.518;2023-07-29T06:34:57;97871.25;;;15.43;100.00
24154;BME280;12312;53.362;-1.518;2023-07-29T06:37:41;97864.22;;;15.42;100.00
24154;BME280;12312;53.362;-1.518;2023-07-29T06:40:25;97881.06;;;15.58;100.00
24154;BME280;12312;53.362;-1.518;2023-07-29T06:43:09;97872.34;;;15.56;100.00
24154;BME280;12312;53.362;-1.518;2023-07-29T06:45:53;97874.00;;;15.57;100.00
24154;BME280;12312;53.362;-1.518;2023-07-29T06:48:37;97871.91;;;15.75;100.00
24154;BME280;12312;53.362;-1.518;2023-07-29T06:51:21;97881.84;;;15.97;100.00
24154;BME280;12312;53.362;-1.518;2023-07-29T06:54:05;97880.94;;;15.82;100.00
24154;BME280;12312;53.362;-1.518;2023-07-29T06:56:49;97877.78;;;16.01;100.00
24154;BME280;12312;53.362;-1.518;2023-07-29T06:59:33;97875.81;;;15.95;100.00
24154;BME280;12312;53.362;-1.518;2023-07-29T07:02:17;97866.59;;;15.98;100.00
24154;BME280;12312;53.362;-1.518;2023-07-29T07:05:00;97877.34;;;16.21;100.00
24154;BME280;12312;53.362;-1.518;2023-07-29T07:07:44;97865.69;;;16.06;100.00
24154;BME280;12312;53.362;-1.518;2023-07-29T07:10:34;97872.06;;;16.27;100.00
24154;BME280;12312;53.362;-1.518;2023-07-29T07:13:18;97869.25;;;16.51;100.00
24154;BME280;12312;53.362;-1.518;2023-07-29T07:16:02;97869.63;;;16.63;100.00
24154;BME280;12312;53.362;-1.518;2023-07-29T07:18:46;97878.25;;;16.73;100.00
24154;BME280;12312;53.362;-1.518;2023-07-29T07:21:31;97869.09;;;16.82;100.00
24154;BME280;12312;53.362;-1.518;2023-07-29T07:24:16;97871.63;;;16.98;100.00
24154;BME280;12312;53.362;-1.518;2023-07-29T07:27:00;97859.84;;;17.28;100.00
24154;BME280;12312;53.362;-1.518;2023-07-29T07:29:44;97867.75;;;17.15;100.00
24154;BME280;12312;53.362;-1.518;2023-07-29T07:32:28;97868.00;;;17.20;100.00
24154;BME280;12312;53.362;-1.518;2023-07-29T07:35:12;97868.50;;;17.09;100.00
24154;BME280;12312;53.362;-1.518;2023-07-29T07:37:56;97873.47;;;16.83;100.00
24154;BME280;12312;53.362;-1.518;2023-07-29T07:40:40;97864.94;;;16.94;100.00
24154;BME280;12312;53.362;-1.518;2023-07-29T07:43:24;97870.41;;;17.00;100.00
24154;BME280;12312;53.362;-1.518;2023-07-29T07:46:08;97880.50;;;16.84;100.00
24154;BME280;12312;53.362;-1.518;2023-07-29T07:48:52;97875.31;;;16.82;100.00
24154;BME280;12312;53.362;-1.518;2023-07-29T07:51:36;97877.81;;;16.84;100.00
24154;BME280;12312;53.362;-1.518;2023-07-29T07:54:20;97876.97;;;16.83;100.00
24154;BME280;12312;53.362;-1.518;2023-07-29T07:57:04;97884.22;;;16.83;100.00
24154;BME280;12312;53.362;-1.518;2023-07-29T07:59:48;97885.50;;;16.87;100.00
24154;BME280;12312;53.362;-1.518;2023-07-29T08:02:32;97871.94;;;17.03;100.00
24154;BME280;12312;53.362;-1.518;2023-07-29T08:05:16;97876.53;;;16.94;100.00
24154;BME280;12312;53.362;-1.518;2023-07-29T08:08:01;97865.31;;;16.91;100.00
24154;BME280;12312;53.362;-1.518;2023-07-29T08:10:45;97873.94;;;17.01;100.00
24154;BME280;12312;53.362;-1.518;2023-07-29T08:13:29;97879.41;;;16.93;100.00
24154;BME280;12312;53.362;-1.518;2023-07-29T08:16:13;97883.13;;;16.92;100.00
24154;BME280;12312;53.362;-1.518;2023-07-29T08:18:58;97874.69;;;16.95;100.00
24154;BME280;12312;53.362;-1.518;2023-07-29T08:21:42;97873.47;;;16.97;100.00
24154;BME280;12312;53.362;-1.518;2023-07-29T08:24:26;97887.47;;;16.93;100.00
24154;BME280;12312;53.362;-1.518;2023-07-29T08:27:09;97888.94;;;16.81;100.00
24154;BME280;12312;53.362;-1.518;2023-07-29T08:29:53;97878.75;;;16.91;100.00
24154;BME280;12312;53.362;-1.518;2023-07-29T08:32:37;97874.63;;;17.03;100.00
24154;BME280;12312;53.362;-1.518;2023-07-29T08:35:21;97874.03;;;16.93;100.00
24154;BME280;12312;53.362;-1.518;2023-07-29T08:38:06;97876.63;;;17.01;100.00
24154;BME280;12312;53.362;-1.518;2023-07-29T08:40:52;97878.13;;;17.18;100.00
24154;BME280;12312;53.362;-1.518;2023-07-29T08:43:41;97879.88;;;17.11;100.00
24154;BME280;12312;53.362;-1.518;2023-07-29T08:46:27;97873.88;;;17.09;100.00
24154;BME280;12312;53.362;-1.518;2023-07-29T08:49:12;97885.28;;;17.25;100.00
24154;BME280;12312;53.362;-1.518;2023-07-29T08:52:02;97880.72;;;17.55;100.00
24154;BME280;12312;53.362;-1.518;2023-07-29T08:54:47;97877.84;;;17.56;100.00
24154;BME280;12312;53.362;-1.518;2023-07-29T08:57:32;97878.31;;;17.60;100.00
24154;BME280;12312;53.362;-1.518;2023-07-29T09:00:16;97877.84;;;17.71;100.00
24154;BME280;12312;53.362;-1.518;2023-07-29T09:03:00;97881.31;;;17.65;100.00
24154;BME280;12312;53.362;-1.518;2023-07-29T09:05:50;97884.56;;;17.60;100.00
24154;BME280;12312;53.362;-1.518;2023-07-29T09:08:34;97882.19;;;17.72;100.00
24154;BME280;12312;53.362;-1.518;2023-07-29T09:11:18;97865.22;;;18.07;100.00
24154;BME280;12312;53.362;-1.518;2023-07-29T09:14:03;97868.69;;;18.22;100.00
24154;BME280;12312;53.362;-1.518;2023-07-29T09:16:46;97868.31;;;18.25;100.00
24154;BME280;12312;53.362;-1.518;2023-07-29T09:19:32;97871.31;;;18.37;100.00
24154;BME280;12312;53.362;-1.518;2023-07-29T09:22:17;97869.44;;;18.52;100.00
24154;BME280;12312;53.362;-1.518;2023-07-29T09:25:01;97876.47;;;18.53;100.00
24154;BME280;12312;53.362;-1.518;2023-07-29T09:27:45;97863.06;;;18.59;100.00
24154;BME280;12312;53.362;-1.518;2023-07-29T09:30:29;97864.03;;;18.52;100.00
24154;BME280;12312;53.362;-1.518;2023-07-29T09:33:13;97883.09;;;18.71;100.00
24154;BME280;12312;53.362;-1.518;2023-07-29T09:35:57;97878.50;;;18.72;100.00
24154;BME280;12312;53.362;-1.518;2023-07-29T09:38:41;97873.03;;;18.86;99.89
24154;BME280;12312;53.362;-1.518;2023-07-29T09:41:27;97875.09;;;18.84;98.30
24154;BME280;12312;53.362;-1.518;2023-07-29T09:44:11;97876.25;;;18.75;99.18
24154;BME280;12312;53.362;-1.518;2023-07-29T09:46:55;97877.69;;;18.71;99.26
24154;BME280;12312;53.362;-1.518;2023-07-29T09:49:40;97873.56;;;18.75;100.00
24154;BME280;12312;53.362;-1.518;2023-07-29T09:52:25;97876.34;;;18.88;99.60
24154;BME280;12312;53.362;-1.518;2023-07-29T09:55:12;97880.13;;;19.21;99.19
24154;BME280;12312;53.362;-1.518;2023-07-29T09:58:00;97866.34;;;19.37;97.99
24154;BME280;12312;53.362;-1.518;2023-07-29T10:00:47;97877.19;;;19.51;96.90
24154;BME280;12312;53.362;-1.518;2023-07-29T10:03:31;97876.50;;;19.35;92.78
24154;BME280;12312;53.362;-1.518;2023-07-29T10:06:15;97876.19;;;19.52;91.15
24154;BME280;12312;53.362;-1.518;2023-07-29T10:08:59;97876.06;;;19.73;92.85
24154;BME280;12312;53.362;-1.518;2023-07-29T10:11:43;97870.53;;;19.47;92.00
24154;BME280;12312;53.362;-1.518;2023-07-29T10:14:27;97878.78;;;19.73;92.60
24154;BME280;12312;53.362;-1.518;2023-07-29T10:17:11;97876.75;;;19.40;97.27
24154;BME280;12312;53.362;-1.518;2023-07-29T10:19:56;97881.34;;;19.47;94.55
24154;BME280;12312;53.362;-1.518;2023-07-29T10:22:44;97892.34;;;19.17;93.68
24154;BME280;12312;53.362;-1.518;2023-07-29T10:25:33;97890.72;;;19.23;95.65
24154;BME280;12312;53.362;-1.518;2023-07-29T10:28:20;97890.34;;;18.98;95.76
24154;BME280;12312;53.362;-1.518;2023-07-29T10:31:09;97875.56;;;18.94;95.45
24154;BME280;12312;53.362;-1.518;2023-07-29T10:33:53;97895.47;;;18.93;96.40
24154;BME280;12312;53.362;-1.518;2023-07-29T10:36:37;97893.44;;;18.95;95.15
24154;BME280;12312;53.362;-1.518;2023-07-29T10:39:24;97891.56;;;18.68;97.27
24154;BME280;12312;53.362;-1.518;2023-07-29T10:42:08;97897.91;;;18.40;100.00
24154;BME280;12312;53.362;-1.518;2023-07-29T10:44:52;97900.94;;;18.51;100.00
24154;BME280;12312;53.362;-1.518;2023-07-29T10:47:36;97887.66;;;18.50;100.00
24154;BME280;12312;53.362;-1.518;2023-07-29T10:50:21;97897.50;;;18.43;100.00
24154;BME280;12312;53.362;-1.518;2023-07-29T10:53:05;97905.66;;;18.70;100.00
24154;BME280;12312;53.362;-1.518;2023-07-29T10:55:49;97901.44;;;18.61;100.00
24154;BME280;12312;53.362;-1.518;2023-07-29T10:58:35;97899.75;;;18.81;100.00
24154;BME280;12312;53.362;-1.518;2023-07-29T11:01:29;97902.09;;;18.42;100.00
24154;BME280;12312;53.362;-1.518;2023-07-29T11:09:55;97891.31;;;18.42;100.00
24154;BME280;12312;53.362;-1.518;2023-07-29T11:15:29;97913.31;;;18.94;100.00
24154;BME280;12312;53.362;-1.518;2023-07-29T11:18:13;97900.22;;;19.47;100.00
24154;BME280;12312;53.362;-1.518;2023-07-29T11:20:59;97908.13;;;18.93;100.00
24154;BME280;12312;53.362;-1.518;2023-07-29T11:23:43;97913.09;;;19.17;100.00
24154;BME280;12312;53.362;-1.518;2023-07-29T11:26:28;97908.72;;;19.43;98.50
24154;BME280;12312;53.362;-1.518;2023-07-29T11:29:12;97912.13;;;19.52;96.48
24154;BME280;12312;53.362;-1.518;2023-07-29T11:31:56;97922.38;;;19.35;98.33
24154;BME280;12312;53.362;-1.518;2023-07-29T11:34:40;97911.22;;;19.17;96.85
24154;BME280;12312;53.362;-1.518;2023-07-29T11:37:24;97915.06;;;19.29;96.07
24154;BME280;12312;53.362;-1.518;2023-07-29T11:40:08;97914.97;;;19.44;95.87
24154;BME280;12312;53.362;-1.518;2023-07-29T11:42:55;97917.69;;;19.51;93.95
24154;BME280;12312;53.362;-1.518;2023-07-29T11:45:40;97922.75;;;19.32;96.11
24154;BME280;12312;53.362;-1.518;2023-07-29T11:48:28;97932.88;;;18.75;100.00
24154;BME280;12312;53.362;-1.518;2023-07-29T11:51:12;97923.28;;;19.49;95.44
24154;BME280;12312;53.362;-1.518;2023-07-29T11:53:57;97913.78;;;20.54;85.76
24154;BME280;12312;53.362;-1.518;2023-07-29T11:56:41;97912.16;;;21.18;79.40
24154;BME280;12312;53.362;-1.518;2023-07-29T11:59:25;97905.06;;;21.37;76.79
24154;BME280;12312;53.362;-1.518;2023-07-29T12:02:13;97900.88;;;21.41;73.65
24154;BME280;12312;53.362;-1.518;2023-07-29T12:04:57;97889.94;;;21.86;68.66
24154;BME280;12312;53.362;-1.518;2023-07-29T12:07:42;97913.13;;;21.50;66.61
24154;BME280;12312;53.362;-1.518;2023-07-29T12:10:27;97915.72;;;22.02;66.24
24154;BME280;12312;53.362;-1.518;2023-07-29T12:13:11;97909.31;;;22.71;64.18
24154;BME280;12312;53.362;-1.518;2023-07-29T12:16:00;97918.41;;;23.08;61.25
24154;BME280;12312;53.362;-1.518;2023-07-29T12:18:44;97917.94;;;23.18;62.18
24154;BME280;12312;53.362;-1.518;2023-07-29T12:21:28;97927.25;;;23.89;60.87
24154;BME280;12312;53.362;-1.518;2023-07-29T12:24:12;97922.75;;;23.40;60.29
24154;BME280;12312;53.362;-1.518;2023-07-29T12:26:57;97908.22;;;23.53;60.41
24154;BME280;12312;53.362;-1.518;2023-07-29T12:29:41;97918.81;;;23.12;60.26
24154;BME280;12312;53.362;-1.518;2023-07-29T12:32:26;97913.59;;;23.10;59.93
24154;BME280;12312;53.362;-1.518;2023-07-29T12:35:10;97909.94;;;23.23;56.80
24154;BME280;12312;53.362;-1.518;2023-07-29T12:38:00;97910.41;;;23.20;57.85
24154;BME280;12312;53.362;-1.518;2023-07-29T12:40:44;97919.78;;;22.93;61.45
24154;BME280;12312;53.362;-1.518;2023-07-29T12:43:28;97910.94;;;23.04;61.88
24154;BME280;12312;53.362;-1.518;2023-07-29T12:46:12;97915.03;;;23.13;62.31
24154;BME280;12312;53.362;-1.518;2023-07-29T12:48:56;97904.28;;;23.49;58.72
24154;BME280;12312;53.362;-1.518;2023-07-29T12:51:40;97924.50;;;23.35;60.93
24154;BME280;12312;53.362;-1.518;2023-07-29T12:54:25;97916.94;;;23.37;60.79
24154;BME280;12312;53.362;-1.518;2023-07-29T12:57:08;97915.31;;;23.72;59.59
24154;BME280;12312;53.362;-1.518;2023-07-29T12:59:52;97913.81;;;23.09;58.91
24154;BME280;12312;53.362;-1.518;2023-07-29T13:02:36;97917.03;;;23.24;58.33
24154;BME280;12312;53.362;-1.518;2023-07-29T13:05:20;97925.19;;;23.48;59.22
24154;BME280;12312;53.362;-1.518;2023-07-29T13:08:05;97926.16;;;23.54;59.11
24154;BME280;12312;53.362;-1.518;2023-07-29T13:10:49;97925.56;;;23.52;58.36
24154;BME280;12312;53.362;-1.518;2023-07-29T13:13:33;97923.38;;;24.32;57.91
24154;BME280;12312;53.362;-1.518;2023-07-29T13:16:17;97912.88;;;24.95;55.65
24154;BME280;12312;53.362;-1.518;2023-07-29T13:19:01;97913.34;;;24.33;56.39
24154;BME280;12312;53.362;-1.518;2023-07-29T13:21:45;97916.84;;;24.81;57.39
24154;BME280;12312;53.362;-1.518;2023-07-29T13:24:29;97920.81;;;24.97;53.89
24154;BME280;12312;53.362;-1.518;2023-07-29T13:27:13;97927.22;;;23.95;54.36
24154;BME280;12312;53.362;-1.518;2023-07-29T13:29:57;97936.94;;;23.85;53.24
24154;BME280;12312;53.362;-1.518;2023-07-29T13:32:41;97921.81;;;23.53;53.61
24154;BME280;12312;53.362;-1.518;2023-07-29T13:35:25;97933.53;;;23.71;56.13
24154;BME280;12312;53.362;-1.518;2023-07-29T13:38:09;97934.06;;;24.16;53.82
24154;BME280;12312;53.362;-1.518;2023-07-29T13:40:53;97937.63;;;24.46;55.14
24154;BME280;12312;53.362;-1.518;2023-07-29T13:43:37;97927.28;;;24.07;52.85
24154;BME280;12312;53.362;-1.518;2023-07-29T13:46:21;97924.56;;;23.46;52.87
24154;BME280;12312;53.362;-1.518;2023-07-29T13:49:05;97930.06;;;23.15;53.87
24154;BME280;12312;53.362;-1.518;2023-07-29T13:51:49;97929.22;;;23.15;57.22
24154;BME280;12312;53.362;-1.518;2023-07-29T13:54:32;97931.09;;;22.58;58.29
24154;BME280;12312;53.362;-1.518;2023-07-29T13:57:16;97939.06;;;22.03;59.39
24154;BME280;12312;53.362;-1.518;2023-07-29T14:00:00;97948.75;;;21.53;61.66
24154;BME280;12312;53.362;-1.518;2023-07-29T14:02:44;97942.31;;;21.48;61.72
24154;BME280;12312;53.362;-1.518;2023-07-29T14:05:28;97941.31;;;21.16;64.13
24154;BME280;12312;53.362;-1.518;2023-07-29T14:08:12;97947.53;;;21.36;63.47
24154;BME280;12312;53.362;-1.518;2023-07-29T14:10:56;97946.22;;;21.71;64.12
24154;BME280;12312;53.362;-1.518;2023-07-29T14:13:40;97944.97;;;21.67;64.09
24154;BME280;12312;53.362;-1.518;2023-07-29T14:16:24;97948.09;;;21.77;65.73
24154;BME280;12312;53.362;-1.518;2023-07-29T14:19:08;97945.41;;;21.77;65.98
24154;BME280;12312;53.362;-1.518;2023-07-29T14:21:52;97941.53;;;21.15;66.17
24154;BME280;12312;53.362;-1.518;2023-07-29T14:24:36;97946.69;;;21.55;65.58